Kidron, Ohio
Current Conditions -  °F | °C
As of 10:56 PM on Sunday 25 Jan 2015 (Local Time) from KBJJ Reporting Station
Light Snow Light Snow  
Wind Chill:   Ceiling: 1100
Heat Index: 20°   Visibility: 0.75mi
Dew Point: 18°   Wind: 12mph
Humidity: 92%   Direction: 30°NNE
Pressure: 29.82"   Gusts: NA
Location:  40.74°N, 81.74°W
Report Text: KBJJ 260356Z AUTO 03010KT 3/4SM -SN BR VV011 M07/M08 A2982 RMK AO2 SLP112 P0000 T10671078 TSNO
Loading
Personal Weather Stations






























Interactive Weather Map New forecast layout! Learn more

10-Day Weather Forecast

Advertisements
Track Severe Weather on mobile